createdAt,value
2023-02-12T00:03:13.104Z,8.97
2023-02-12T00:07:14.644Z,8.95
2023-02-12T00:11:19.011Z,9.12
2023-02-12T00:15:21.081Z,9.09
2023-02-12T00:19:22.992Z,9.21
2023-02-12T00:23:24.494Z,9.09
2023-02-12T00:27:26.027Z,9.05
2023-02-12T00:31:29.729Z,8.97
2023-02-12T00:35:31.237Z,8.95
2023-02-12T00:39:32.770Z,9.08
2023-02-12T00:43:34.292Z,9.17
2023-02-12T00:47:35.811Z,9.06
2023-02-12T00:51:37.250Z,9.11
2023-02-12T00:55:38.757Z,9.35
2023-02-12T00:59:42.156Z,9.14
2023-02-12T01:03:43.644Z,9.23
2023-02-12T01:07:50.418Z,9.16
2023-02-12T01:11:51.947Z,9.15
2023-02-12T01:16:06.590Z,9.18
2023-02-12T01:20:11.315Z,9.36
2023-02-12T01:24:12.881Z,9.27
2023-02-12T01:28:14.338Z,9.37
2023-02-12T01:32:15.843Z,9.37
2023-02-12T01:36:17.777Z,9.46
2023-02-12T01:40:19.589Z,9.46
2023-02-12T01:44:23.845Z,9.46
2023-02-12T01:48:28.666Z,9.56
2023-02-12T01:52:34.452Z,9.19
2023-02-12T01:56:36.485Z,9.23
2023-02-12T02:00:39.114Z,9.24
2023-02-12T02:04:46.382Z,9.26
2023-02-12T02:08:48.891Z,9.17
2023-02-12T02:13:08.900Z,9.09
2023-02-12T02:17:35.315Z,9.29
2023-02-12T02:22:05.359Z,9.20
2023-02-12T02:26:28.630Z,9.30
2023-02-12T02:30:45.396Z,9.34
2023-02-12T02:35:09.441Z,9.47
2023-02-12T02:39:35.080Z,9.42
2023-02-12T02:43:44.252Z,9.63
2023-02-12T02:47:55.380Z,9.42
2023-02-12T02:52:05.180Z,9.56
2023-02-12T02:56:08.598Z,9.36
2023-02-12T03:00:13.951Z,9.39
2023-02-12T03:04:22.537Z,9.18
2023-02-12T03:08:29.340Z,9.32
2023-02-12T03:12:47.642Z,9.37
2023-02-12T03:16:58.316Z,9.29
2023-02-12T03:21:09.614Z,9.41
2023-02-12T03:25:17.209Z,9.37
2023-02-12T03:29:18.779Z,9.51
2023-02-12T03:33:31.453Z,9.55
2023-02-12T03:38:14.817Z,9.56
2023-02-12T03:42:24.000Z,9.54
2023-02-12T03:46:35.233Z,9.33
2023-02-12T03:50:52.453Z,9.74
2023-02-12T03:54:54.022Z,9.63
2023-02-12T03:58:55.558Z,9.55
2023-02-12T04:02:57.048Z,9.36
2023-02-12T04:06:58.768Z,9.38
2023-02-12T04:11:47.690Z,9.32
2023-02-12T04:16:02.970Z,9.06
2023-02-12T04:20:27.260Z,9.24
2023-02-12T04:24:48.701Z,9.22
2023-02-12T04:29:21.686Z,9.18
2023-02-12T04:33:28.060Z,9.33
2023-02-12T04:37:43.838Z,9.15
2023-02-12T04:41:45.293Z,9.23
2023-02-12T04:45:46.737Z,9.44
2023-02-12T04:49:48.168Z,9.36
2023-02-12T04:53:49.967Z,9.47
2023-02-12T04:57:51.738Z,9.16
2023-02-12T05:01:53.174Z,8.94
2023-02-12T05:05:55.023Z,8.98
2023-02-12T05:09:56.974Z,9.09
2023-02-12T05:13:58.747Z,8.83
2023-02-12T05:18:00.154Z,9.04
2023-02-12T05:22:01.711Z,8.88
2023-02-12T05:26:06.382Z,9.08
2023-02-12T05:30:09.484Z,9.01
2023-02-12T05:34:12.441Z,9.09
2023-02-12T05:38:13.848Z,9.36
2023-02-12T05:42:15.315Z,9.25
2023-02-12T05:46:19.696Z,9.12
2023-02-12T05:50:21.799Z,9.22
2023-02-12T05:54:33.786Z,9.12
2023-02-12T05:58:35.511Z,9.30
2023-02-12T06:02:37.010Z,9.27
2023-02-12T06:06:41.961Z,9.28
2023-02-12T06:10:43.453Z,9.30
2023-02-12T06:14:44.943Z,9.19
2023-02-12T06:18:46.616Z,9.31
2023-02-12T06:22:48.024Z,9.32
2023-02-12T06:26:51.273Z,9.38
2023-02-12T06:30:52.908Z,9.38
2023-02-12T06:34:55.339Z,9.42
2023-02-12T06:38:57.086Z,9.39
2023-02-12T06:42:58.526Z,9.43
2023-02-12T06:47:00.081Z,9.41
2023-02-12T06:51:21.787Z,9.39
2023-02-12T06:55:23.218Z,9.22
2023-02-12T06:59:24.640Z,9.24
2023-02-12T07:03:26.103Z,9.16
2023-02-12T07:07:27.543Z,9.13
2023-02-12T07:11:31.640Z,9.19
2023-02-12T07:15:33.113Z,9.25
2023-02-12T07:19:34.540Z,9.21
2023-02-12T07:23:36.664Z,9.49
2023-02-12T07:27:38.335Z,9.38
2023-02-12T07:31:40.263Z,9.37
2023-02-12T07:35:41.771Z,9.46
2023-02-12T07:39:43.211Z,9.54
2023-02-12T07:43:46.822Z,9.48
2023-02-12T07:47:48.334Z,9.65
2023-02-12T07:51:50.427Z,9.56
2023-02-12T07:55:52.004Z,9.46
2023-02-12T07:59:53.482Z,9.38
2023-02-12T08:03:58.944Z,9.40
2023-02-12T08:08:00.400Z,9.42
2023-02-12T08:12:01.844Z,9.51
2023-02-12T08:16:15.254Z,9.41
2023-02-12T08:20:16.790Z,10.00
2023-02-12T08:24:18.517Z,9.84
2023-02-12T08:28:23.160Z,10.16
2023-02-12T08:32:24.687Z,10.15
2023-02-12T08:36:29.022Z,10.23
2023-02-12T08:40:30.477Z,10.40
2023-02-12T08:44:32.205Z,10.31
2023-02-12T08:48:33.777Z,10.25
2023-02-12T08:52:35.722Z,10.14
2023-02-12T08:56:37.576Z,10.15
2023-02-12T09:00:40.484Z,10.33
2023-02-12T09:04:42.164Z,10.42
2023-02-12T09:08:43.908Z,10.29
2023-02-12T09:12:45.314Z,10.53
2023-02-12T09:16:46.810Z,10.74
2023-02-12T09:20:48.326Z,10.80
2023-02-12T09:24:49.802Z,10.52
2023-02-12T09:28:52.345Z,10.77
2023-02-12T09:32:54.927Z,10.88
2023-02-12T09:36:56.369Z,10.86
2023-02-12T09:41:21.860Z,10.84
2023-02-12T09:45:28.094Z,11.26
2023-02-12T09:49:48.154Z,11.33
2023-02-12T09:53:56.745Z,11.45
2023-02-12T09:58:01.081Z,11.59
2023-02-12T10:02:02.564Z,11.55
2023-02-12T10:06:25.906Z,11.82
2023-02-12T10:11:10.071Z,11.74
2023-02-12T10:15:26.334Z,11.49
2023-02-12T10:20:01.099Z,11.70
2023-02-12T10:24:42.387Z,11.84
2023-02-12T10:28:44.416Z,11.72
2023-02-12T10:32:50.526Z,11.79
2023-02-12T10:36:56.170Z,11.56
2023-02-12T10:41:01.686Z,11.61
2023-02-12T10:45:03.563Z,11.75
2023-02-12T10:49:06.284Z,11.71
2023-02-12T10:53:21.714Z,11.55
2023-02-12T10:57:33.038Z,11.34
2023-02-12T11:01:37.926Z,11.50
2023-02-12T11:05:42.339Z,11.72
2023-02-12T11:09:46.321Z,12.19
2023-02-12T11:13:54.014Z,12.33
2023-02-12T11:18:10.797Z,11.92
2023-02-12T11:22:18.699Z,12.03
2023-02-12T11:26:20.123Z,11.91
2023-02-12T11:30:22.185Z,12.21
2023-02-12T11:34:23.693Z,12.04
2023-02-12T11:38:29.114Z,11.81
2023-02-12T11:42:37.486Z,12.04
2023-02-12T11:46:40.745Z,12.07
2023-02-12T11:50:48.407Z,12.10
2023-02-12T11:54:53.280Z,12.29
2023-02-12T11:59:16.598Z,12.02
2023-02-12T12:03:23.948Z,12.19
2023-02-12T12:07:32.495Z,12.17
2023-02-12T12:11:59.935Z,11.83
2023-02-12T12:16:34.714Z,12.06
2023-02-12T12:20:42.528Z,12.00
2023-02-12T12:24:53.420Z,12.10
2023-02-12T12:29:01.396Z,12.06
2023-02-12T12:33:08.876Z,12.24
2023-02-12T12:37:26.332Z,12.22
2023-02-12T12:41:48.280Z,12.39
2023-02-12T12:46:17.405Z,12.28
2023-02-12T12:50:35.966Z,12.73
2023-02-12T12:55:13.376Z,12.71
2023-02-12T12:59:34.537Z,12.44
2023-02-12T13:03:57.476Z,12.78
2023-02-12T13:08:27.753Z,12.38
2023-02-12T13:12:59.580Z,12.48
2023-02-12T13:17:32.930Z,12.62
2023-02-12T13:21:44.201Z,12.46
2023-02-12T13:25:57.697Z,12.60
2023-02-12T13:30:15.497Z,12.42
2023-02-12T13:34:18.577Z,12.70
2023-02-12T13:38:32.542Z,12.56
2023-02-12T13:42:46.764Z,12.72
2023-02-12T13:47:09.822Z,12.80
2023-02-12T13:51:14.001Z,12.65
2023-02-12T13:55:25.310Z,12.61
2023-02-12T13:59:32.987Z,12.53
2023-02-12T14:03:36.990Z,12.54
2023-02-12T14:07:51.099Z,12.59
2023-02-12T14:11:54.019Z,12.53
2023-02-12T14:15:58.742Z,12.63
2023-02-12T14:20:23.677Z,12.59
2023-02-12T14:24:37.121Z,12.76
2023-02-12T14:28:57.562Z,12.87
2023-02-12T14:33:09.059Z,12.96
2023-02-12T14:37:16.119Z,12.90
2023-02-12T14:41:38.549Z,12.78
2023-02-12T14:45:40.106Z,12.78
2023-02-12T14:49:47.486Z,12.77
2023-02-12T14:53:51.458Z,12.62
2023-02-12T14:58:02.430Z,12.64
2023-02-12T15:02:05.833Z,12.80
2023-02-12T15:06:13.759Z,12.79
2023-02-12T15:10:18.968Z,12.70
2023-02-12T15:14:27.171Z,12.55
2023-02-12T15:18:40.358Z,12.48
2023-02-12T15:22:42.926Z,12.56
2023-02-12T15:26:48.389Z,12.52
2023-02-12T15:30:51.543Z,12.50
2023-02-12T15:34:54.157Z,12.25
2023-02-12T15:39:06.199Z,12.23
2023-02-12T15:43:18.068Z,12.24
2023-02-12T15:47:24.677Z,12.12
2023-02-12T15:51:38.521Z,12.29
2023-02-12T15:55:45.217Z,12.27
2023-02-12T15:59:52.941Z,12.34
2023-02-12T16:03:57.942Z,12.24
2023-02-12T16:07:59.942Z,12.20
2023-02-12T16:12:04.995Z,12.25
2023-02-12T16:16:14.250Z,12.30
2023-02-12T16:20:15.693Z,12.26
2023-02-12T16:24:48.373Z,12.12
2023-02-12T16:28:54.132Z,11.95
2023-02-12T16:32:57.045Z,12.12
2023-02-12T16:36:58.948Z,11.96
2023-02-12T16:41:18.488Z,12.04
2023-02-12T16:45:29.632Z,11.93
2023-02-12T16:49:31.438Z,11.82
2023-02-12T16:53:43.938Z,11.84
2023-02-12T16:57:57.080Z,11.59
2023-02-12T17:03:09.504Z,11.51
2023-02-12T17:07:22.525Z,11.19
2023-02-12T17:11:26.452Z,11.26
2023-02-12T17:16:02.803Z,11.19
2023-02-12T17:20:33.788Z,11.29
2023-02-12T17:25:02.699Z,11.14
2023-02-12T17:33:46.487Z,11.24
2023-02-12T17:37:48.077Z,11.20
2023-02-12T17:41:49.585Z,11.30
2023-02-12T17:45:51.135Z,11.59
2023-02-12T17:50:31.722Z,11.24
2023-02-12T18:01:23.813Z,11.29
2023-02-12T18:16:07.942Z,10.78
2023-02-12T18:20:11.171Z,10.87
2023-02-12T18:24:12.681Z,10.96
2023-02-12T18:28:14.318Z,10.84
2023-02-12T18:32:15.901Z,10.75
2023-02-12T18:36:19.173Z,10.77
2023-02-12T18:40:20.778Z,10.83
2023-02-12T18:44:22.800Z,10.80
2023-02-12T18:48:24.242Z,10.79
2023-02-12T18:52:25.834Z,10.80
2023-02-12T18:56:28.838Z,10.79
2023-02-12T19:00:30.289Z,10.73
2023-02-12T19:04:31.988Z,10.79
2023-02-12T19:08:33.488Z,10.78
2023-02-12T19:12:34.904Z,10.53
2023-02-12T19:16:36.330Z,10.52
2023-02-12T19:20:40.320Z,10.50
2023-02-12T19:24:47.007Z,10.57
2023-02-12T19:28:48.924Z,10.52
2023-02-12T19:32:50.396Z,10.67
2023-02-12T19:36:52.111Z,10.64
2023-02-12T19:41:03.603Z,10.51
2023-02-12T19:45:05.446Z,10.74
2023-02-12T19:49:08.300Z,10.73
2023-02-12T19:53:09.720Z,10.74
2023-02-12T19:57:13.474Z,10.44
2023-02-12T20:01:17.854Z,10.33
2023-02-12T20:05:19.327Z,10.45
2023-02-12T20:09:22.058Z,10.34
2023-02-12T20:13:23.540Z,10.32
2023-02-12T20:17:25.037Z,10.33
2023-02-12T20:21:30.534Z,10.44
2023-02-12T20:25:32.474Z,10.41
2023-02-12T20:29:33.966Z,10.43
2023-02-12T20:33:35.499Z,10.45
2023-02-12T20:37:36.968Z,10.66
2023-02-12T20:41:38.435Z,10.58
2023-02-12T20:45:39.869Z,10.51
2023-02-12T20:49:41.327Z,10.67
2023-02-12T20:53:43.569Z,10.82
2023-02-12T20:57:45.009Z,10.81
2023-02-12T21:01:46.827Z,10.76
2023-02-12T21:05:48.288Z,10.51
2023-02-12T21:09:50.131Z,10.65
2023-02-12T21:14:12.641Z,10.72
2023-02-12T21:18:22.566Z,10.81
2023-02-12T21:22:24.015Z,10.92
2023-02-12T21:26:28.134Z,10.78
2023-02-12T21:30:29.555Z,10.87
2023-02-12T21:34:31.119Z,10.81
2023-02-12T21:38:34.698Z,10.77
2023-02-12T21:42:36.117Z,10.63
2023-02-12T21:46:37.779Z,10.62
2023-02-12T21:50:39.247Z,10.66
2023-02-12T21:54:40.703Z,10.64
2023-02-12T21:58:43.007Z,11.09
2023-02-12T22:02:44.486Z,10.55
2023-02-12T22:06:48.518Z,10.76
2023-02-12T22:10:50.014Z,10.70
2023-02-12T22:14:51.450Z,10.68
2023-02-12T22:18:59.136Z,10.85
2023-02-12T22:23:00.594Z,10.62
2023-02-12T22:27:02.001Z,10.52
2023-02-12T22:31:07.031Z,10.63
2023-02-12T22:35:08.865Z,10.51
2023-02-12T22:39:12.807Z,10.68
2023-02-12T22:43:14.301Z,10.36
2023-02-12T22:47:15.748Z,10.45
2023-02-12T22:51:21.995Z,10.39
2023-02-12T22:55:23.413Z,10.39
2023-02-12T22:59:25.020Z,10.32
2023-02-12T23:03:28.731Z,10.25
2023-02-12T23:07:30.225Z,10.37
2023-02-12T23:11:33.029Z,10.33
2023-02-12T23:15:34.451Z,10.17
2023-02-12T23:19:35.916Z,10.15
2023-02-12T23:23:37.462Z,10.41
2023-02-12T23:27:39.200Z,10.18
2023-02-12T23:31:40.768Z,10.56
2023-02-12T23:35:42.480Z,10.44
2023-02-12T23:39:43.912Z,10.53
2023-02-12T23:43:45.452Z,10.37
2023-02-12T23:47:46.928Z,10.41
2023-02-12T23:51:48.390Z,10.37
2023-02-12T23:55:51.230Z,10.33
2023-02-12T23:59:53.371Z,10.15
